createdAt,value
2023-02-16T00:01:47.037Z,71.13
2023-02-16T00:04:23.358Z,71.27
2023-02-16T00:06:51.653Z,71.36
2023-02-16T00:09:19.110Z,71.29
2023-02-16T00:12:05.719Z,71.30
2023-02-16T00:14:35.712Z,71.48
2023-02-16T00:17:03.450Z,71.35
2023-02-16T00:19:36.012Z,71.29
2023-02-16T00:22:05.518Z,71.00
2023-02-16T00:24:32.992Z,71.18
2023-02-16T00:27:01.251Z,71.42
2023-02-16T00:29:37.660Z,71.24
2023-02-16T00:32:12.493Z,71.20
2023-02-16T00:34:43.386Z,71.15
2023-02-16T00:37:13.507Z,71.11
2023-02-16T00:39:42.423Z,71.23
2023-02-16T00:42:19.875Z,71.22
2023-02-16T00:44:53.575Z,71.40
2023-02-16T00:47:37.462Z,71.25
2023-02-16T00:50:15.501Z,71.35
2023-02-16T00:52:47.006Z,71.36
2023-02-16T00:55:17.481Z,71.35
2023-02-16T00:57:59.892Z,71.31
2023-02-16T01:00:34.181Z,71.31
2023-02-16T01:03:06.370Z,71.26
2023-02-16T01:05:33.901Z,71.23
2023-02-16T01:08:20.758Z,71.19
2023-02-16T01:11:07.460Z,71.22
2023-02-16T01:13:55.579Z,71.41
2023-02-16T01:16:27.706Z,71.30
2023-02-16T01:18:54.863Z,71.31
2023-02-16T01:21:22.137Z,70.99
2023-02-16T01:23:49.412Z,71.13
2023-02-16T01:26:19.130Z,71.16
2023-02-16T01:28:47.736Z,71.37
2023-02-16T01:31:16.860Z,71.42
2023-02-16T01:33:44.650Z,71.43
2023-02-16T01:36:39.879Z,71.32
2023-02-16T01:39:07.646Z,71.29
2023-02-16T01:41:55.099Z,71.28
2023-02-16T01:44:29.952Z,71.39
2023-02-16T01:47:05.838Z,71.33
2023-02-16T01:49:33.012Z,71.33
2023-02-16T01:52:21.896Z,71.41
2023-02-16T01:54:52.167Z,71.31
2023-02-16T01:57:33.964Z,71.36
2023-02-16T02:00:09.292Z,71.23
2023-02-16T02:02:52.388Z,71.22
2023-02-16T02:05:36.741Z,71.24
2023-02-16T02:08:36.117Z,71.28
2023-02-16T02:11:22.421Z,71.27
2023-02-16T02:14:05.620Z,71.37
2023-02-16T02:16:33.076Z,71.35
2023-02-16T02:19:00.870Z,71.45
2023-02-16T02:22:05.783Z,71.45
2023-02-16T02:24:53.126Z,71.21
2023-02-16T02:27:25.042Z,71.21
2023-02-16T02:30:30.907Z,71.17
2023-02-16T02:33:11.492Z,71.10
2023-02-16T02:36:06.072Z,70.99
2023-02-16T02:38:57.834Z,71.30
2023-02-16T02:41:54.424Z,71.34
2023-02-16T02:44:22.908Z,71.22
2023-02-16T02:46:51.280Z,71.20
2023-02-16T02:49:19.179Z,71.13
2023-02-16T02:51:47.572Z,71.15
2023-02-16T02:54:38.776Z,71.34
2023-02-16T02:57:29.988Z,71.31
2023-02-16T03:00:27.502Z,71.21
2023-02-16T03:03:00.367Z,71.14
2023-02-16T03:05:31.608Z,71.09
2023-02-16T03:08:06.568Z,71.18
2023-02-16T03:10:56.145Z,71.25
2023-02-16T03:13:33.715Z,71.38
2023-02-16T03:16:06.214Z,71.39
2023-02-16T03:18:54.515Z,71.42
2023-02-16T03:21:40.937Z,71.57
2023-02-16T03:24:31.564Z,71.44
2023-02-16T03:27:17.765Z,71.50
2023-02-16T03:29:48.705Z,71.53
2023-02-16T03:32:17.118Z,71.50
2023-02-16T03:34:44.431Z,71.25
2023-02-16T03:37:12.709Z,71.23
2023-02-16T03:39:58.933Z,71.31
2023-02-16T03:42:26.162Z,71.17
2023-02-16T03:44:53.567Z,71.16
2023-02-16T03:47:20.723Z,71.26
2023-02-16T03:49:47.943Z,71.22
2023-02-16T03:52:15.038Z,71.21
2023-02-16T03:54:42.098Z,71.25
2023-02-16T03:57:09.220Z,71.17
2023-02-16T03:59:36.370Z,71.23
2023-02-16T04:02:03.534Z,71.13
2023-02-16T04:04:30.832Z,71.33
2023-02-16T04:06:57.950Z,71.18
2023-02-16T04:09:25.075Z,71.06
2023-02-16T04:12:11.200Z,71.13
2023-02-16T04:14:38.114Z,71.14
2023-02-16T04:17:05.317Z,71.12
2023-02-16T04:19:32.493Z,71.12
2023-02-16T04:21:59.567Z,71.35
2023-02-16T04:24:26.669Z,71.21
2023-02-16T04:26:53.790Z,71.40
2023-02-16T04:29:20.969Z,71.46
2023-02-16T04:31:48.234Z,71.49
2023-02-16T04:34:15.806Z,71.49
2023-02-16T04:36:42.882Z,71.31
2023-02-16T04:39:09.932Z,71.25
2023-02-16T04:41:37.102Z,71.25
2023-02-16T04:44:04.380Z,71.07
2023-02-16T04:46:31.915Z,71.24
2023-02-16T04:48:59.064Z,71.29
2023-02-16T04:51:26.242Z,71.28
2023-02-16T04:53:53.313Z,71.21
2023-02-16T04:56:20.463Z,71.11
2023-02-16T04:58:47.640Z,71.23
2023-02-16T05:01:23.128Z,71.31
2023-02-16T05:03:50.316Z,71.33
2023-02-16T05:06:18.213Z,71.32
2023-02-16T05:08:46.053Z,71.38
2023-02-16T05:11:32.117Z,71.39
2023-02-16T05:14:18.368Z,71.39
2023-02-16T05:16:46.113Z,71.31
2023-02-16T05:19:13.750Z,71.19
2023-02-16T05:21:40.894Z,71.35
2023-02-16T05:24:12.127Z,71.15
2023-02-16T05:26:40.352Z,71.32
2023-02-16T05:29:07.628Z,71.30
2023-02-16T05:31:34.826Z,71.45
2023-02-16T05:34:02.156Z,71.35
2023-02-16T05:36:29.555Z,71.35
2023-02-16T05:38:57.174Z,71.31
2023-02-16T05:41:24.381Z,71.26
2023-02-16T05:43:53.809Z,71.28
2023-02-16T05:46:22.766Z,71.39
2023-02-16T05:48:50.331Z,71.38
2023-02-16T05:51:18.404Z,71.46
2023-02-16T05:53:46.019Z,71.46
2023-02-16T05:56:13.808Z,71.34
2023-02-16T05:58:40.959Z,71.42
2023-02-16T06:01:08.032Z,71.43
2023-02-16T06:03:36.049Z,71.53
2023-02-16T06:06:05.182Z,71.33
2023-02-16T06:08:33.171Z,71.25
2023-02-16T06:11:00.319Z,71.20
2023-02-16T06:13:27.499Z,71.25
2023-02-16T06:15:56.697Z,71.42
2023-02-16T06:18:25.024Z,71.49
2023-02-16T06:20:52.775Z,71.37
2023-02-16T06:23:19.863Z,71.48
2023-02-16T06:25:51.444Z,71.44
2023-02-16T06:28:18.624Z,71.35
2023-02-16T06:30:45.742Z,71.60
2023-02-16T06:33:12.842Z,71.49
2023-02-16T06:35:39.915Z,71.58
2023-02-16T06:38:06.993Z,71.50
2023-02-16T06:40:34.139Z,71.49
2023-02-16T06:43:01.190Z,71.50
2023-02-16T06:45:28.286Z,71.53
2023-02-16T06:47:55.334Z,71.59
2023-02-16T06:50:22.576Z,71.52
2023-02-16T06:52:49.661Z,71.56
2023-02-16T06:55:16.866Z,71.54
2023-02-16T06:57:44.204Z,71.45
2023-02-16T07:00:11.824Z,71.43
2023-02-16T07:02:39.506Z,71.41
2023-02-16T07:05:06.695Z,71.52
2023-02-16T07:07:33.870Z,71.46
2023-02-16T07:10:02.814Z,71.54
2023-02-16T07:12:29.887Z,71.39
2023-02-16T07:14:57.071Z,71.29
2023-02-16T07:17:24.129Z,71.40
2023-02-16T07:19:51.279Z,71.50
2023-02-16T07:22:18.346Z,71.53
2023-02-16T07:24:45.460Z,71.52
2023-02-16T07:27:12.587Z,71.54
2023-02-16T07:29:40.043Z,71.49
2023-02-16T07:32:07.230Z,71.55
2023-02-16T07:34:34.532Z,71.52
2023-02-16T07:37:01.647Z,71.78
2023-02-16T07:39:30.153Z,71.59
2023-02-16T07:41:57.380Z,71.53
2023-02-16T07:44:26.450Z,71.48
2023-02-16T07:46:53.681Z,71.51
2023-02-16T07:49:20.929Z,71.42
2023-02-16T07:51:48.004Z,71.52
2023-02-16T07:54:15.127Z,71.60
2023-02-16T07:56:42.304Z,71.55
2023-02-16T07:59:09.413Z,71.63
2023-02-16T08:01:38.146Z,71.72
2023-02-16T08:04:06.700Z,71.58
2023-02-16T08:06:36.923Z,71.62
2023-02-16T08:09:04.716Z,71.74
2023-02-16T08:11:32.432Z,71.68
2023-02-16T08:14:00.424Z,71.68
2023-02-16T08:16:29.114Z,71.63
2023-02-16T08:18:58.182Z,71.65
2023-02-16T08:21:28.355Z,71.64
2023-02-16T08:24:01.822Z,71.58
2023-02-16T08:26:33.486Z,71.69
2023-02-16T08:29:02.016Z,71.65
2023-02-16T08:31:30.865Z,71.64
2023-02-16T08:34:00.470Z,71.67
2023-02-16T08:36:32.552Z,71.84
2023-02-16T08:39:01.221Z,71.68
2023-02-16T08:41:33.798Z,71.86
2023-02-16T08:44:01.211Z,71.85
2023-02-16T08:46:30.316Z,71.82
2023-02-16T08:49:00.084Z,71.97
2023-02-16T08:51:30.570Z,71.95
2023-02-16T08:54:00.293Z,71.92
2023-02-16T08:56:29.859Z,71.70
2023-02-16T08:58:57.518Z,71.82
2023-02-16T09:01:24.580Z,71.89
2023-02-16T09:03:52.535Z,71.98
2023-02-16T09:06:21.594Z,71.96
2023-02-16T09:08:54.008Z,71.98
2023-02-16T09:11:22.843Z,71.95
2023-02-16T09:13:51.075Z,72.01
2023-02-16T09:16:21.294Z,71.98
2023-02-16T09:18:49.477Z,72.06
2023-02-16T09:21:23.043Z,72.00
2023-02-16T09:23:50.675Z,71.94
2023-02-16T09:26:19.980Z,72.05
2023-02-16T09:28:48.806Z,72.04
2023-02-16T09:31:37.355Z,72.22
2023-02-16T09:34:08.058Z,72.25
2023-02-16T09:36:35.341Z,72.18
2023-02-16T09:39:02.487Z,72.05
2023-02-16T09:41:35.650Z,72.10
2023-02-16T09:44:38.138Z,72.12
2023-02-16T09:47:15.906Z,72.09
2023-02-16T09:49:47.084Z,72.12
2023-02-16T09:52:19.712Z,72.10
2023-02-16T09:54:54.429Z,72.01
2023-02-16T09:57:47.110Z,72.09
2023-02-16T10:00:52.113Z,72.37
2023-02-16T10:03:45.691Z,72.32
2023-02-16T10:06:24.915Z,72.08
2023-02-16T10:08:55.715Z,72.21
2023-02-16T10:11:48.953Z,72.24
2023-02-16T10:14:24.685Z,72.12
2023-02-16T10:16:59.279Z,72.23
2023-02-16T10:19:34.039Z,72.30
2023-02-16T10:22:05.740Z,72.28
2023-02-16T10:24:42.899Z,72.43
2023-02-16T10:27:15.578Z,72.33
2023-02-16T10:29:42.882Z,72.29
2023-02-16T10:32:19.046Z,72.25
2023-02-16T10:34:52.016Z,72.30
2023-02-16T10:37:25.309Z,72.33
2023-02-16T10:40:23.157Z,72.33
2023-02-16T10:42:59.441Z,72.21
2023-02-16T10:45:56.483Z,72.28
2023-02-16T10:48:24.253Z,72.32
2023-02-16T10:50:58.838Z,72.39
2023-02-16T10:53:32.264Z,72.45
2023-02-16T10:55:59.952Z,72.36
2023-02-16T10:58:39.354Z,72.41
2023-02-16T11:01:18.885Z,72.42
2023-02-16T11:03:50.587Z,72.50
2023-02-16T11:06:21.960Z,72.64
2023-02-16T11:08:50.311Z,72.66
2023-02-16T11:11:19.153Z,72.80
2023-02-16T11:13:50.306Z,72.71
2023-02-16T11:16:23.151Z,72.74
2023-02-16T11:19:21.386Z,72.63
2023-02-16T11:21:56.608Z,72.73
2023-02-16T11:24:31.533Z,72.85
2023-02-16T11:27:14.666Z,72.93
2023-02-16T11:29:41.993Z,72.94
2023-02-16T11:32:13.994Z,72.83
2023-02-16T11:34:47.824Z,72.79
2023-02-16T11:37:31.131Z,72.87
2023-02-16T11:40:03.258Z,72.79
2023-02-16T11:42:40.734Z,72.97
2023-02-16T11:45:09.137Z,72.85
2023-02-16T11:47:40.045Z,72.92
2023-02-16T11:50:30.065Z,72.86
2023-02-16T11:53:12.563Z,72.89
2023-02-16T11:55:50.282Z,72.97
2023-02-16T11:58:27.930Z,72.88
2023-02-16T12:01:10.160Z,73.16
2023-02-16T12:03:50.057Z,73.03
2023-02-16T12:06:23.182Z,73.24
2023-02-16T12:08:59.412Z,73.19
2023-02-16T12:11:41.670Z,73.14
2023-02-16T12:14:29.350Z,73.09
2023-02-16T12:17:30.681Z,73.09
2023-02-16T12:20:13.186Z,72.98
2023-02-16T12:22:49.389Z,73.03
2023-02-16T12:25:37.987Z,73.01
2023-02-16T12:28:17.108Z,72.96
2023-02-16T12:31:02.802Z,73.07
2023-02-16T12:33:57.983Z,72.86
2023-02-16T12:36:36.618Z,72.81
2023-02-16T12:39:17.965Z,72.88
2023-02-16T12:42:00.988Z,73.00
2023-02-16T12:44:46.401Z,72.85
2023-02-16T12:47:20.925Z,73.04
2023-02-16T12:50:22.561Z,72.87
2023-02-16T12:53:10.856Z,72.90
2023-02-16T12:55:43.839Z,73.19
2023-02-16T12:58:14.990Z,73.22
2023-02-16T13:00:51.178Z,73.11
2023-02-16T13:03:25.824Z,73.04
2023-02-16T13:06:31.612Z,72.87
2023-02-16T13:09:17.054Z,72.76
2023-02-16T13:11:50.192Z,72.87
2023-02-16T13:14:21.200Z,72.92
2023-02-16T13:16:56.672Z,72.83
2023-02-16T13:19:24.056Z,72.80
2023-02-16T13:22:12.889Z,72.87
2023-02-16T13:25:08.025Z,72.91
2023-02-16T13:27:53.936Z,72.94
2023-02-16T13:30:34.063Z,72.81
2023-02-16T13:33:37.840Z,72.89
2023-02-16T13:36:27.529Z,72.96
2023-02-16T13:39:12.822Z,72.94
2023-02-16T13:41:58.362Z,73.11
2023-02-16T13:44:38.157Z,72.94
2023-02-16T13:47:12.301Z,73.10
2023-02-16T13:49:46.487Z,73.02
2023-02-16T13:52:38.802Z,73.10
2023-02-16T13:55:21.903Z,73.04
2023-02-16T13:57:51.190Z,73.03
2023-02-16T14:00:33.694Z,73.03
2023-02-16T14:03:04.198Z,73.10
2023-02-16T14:05:38.133Z,73.14
2023-02-16T14:08:19.697Z,73.05
2023-02-16T14:10:56.178Z,72.76
2023-02-16T14:13:33.084Z,73.00
2023-02-16T14:16:29.276Z,72.91
2023-02-16T14:19:00.034Z,72.80
2023-02-16T14:21:27.260Z,72.87
2023-02-16T14:23:57.169Z,72.64
2023-02-16T14:26:25.488Z,72.73
2023-02-16T14:29:08.216Z,72.66
2023-02-16T14:31:45.516Z,72.71
2023-02-16T14:34:18.579Z,72.74
2023-02-16T14:37:28.025Z,72.85
2023-02-16T14:40:08.299Z,72.67
2023-02-16T14:42:36.817Z,72.66
2023-02-16T14:45:19.698Z,72.68
2023-02-16T14:47:55.406Z,72.77
2023-02-16T14:50:45.984Z,72.64
2023-02-16T14:53:48.554Z,72.85
2023-02-16T14:56:39.592Z,72.79
2023-02-16T14:59:06.779Z,72.55
2023-02-16T15:01:42.886Z,72.60
2023-02-16T15:04:12.114Z,72.61
2023-02-16T15:06:42.943Z,72.61
2023-02-16T15:09:24.094Z,72.69
2023-02-16T15:12:16.791Z,72.42
2023-02-16T15:14:52.062Z,72.57
2023-02-16T15:17:45.016Z,72.41
2023-02-16T15:20:30.058Z,72.53
2023-02-16T15:23:03.788Z,72.53
2023-02-16T15:25:38.567Z,72.55
2023-02-16T15:28:22.079Z,72.57
2023-02-16T15:31:03.664Z,72.66
2023-02-16T15:33:39.702Z,72.34
2023-02-16T15:36:12.091Z,72.57
2023-02-16T15:38:51.399Z,72.37
2023-02-16T15:41:30.206Z,72.28
2023-02-16T15:43:58.981Z,72.52
2023-02-16T15:46:34.591Z,72.47
2023-02-16T15:49:21.970Z,72.50
2023-02-16T15:51:49.673Z,72.42
2023-02-16T15:54:32.244Z,72.52
2023-02-16T15:57:02.529Z,72.49
2023-02-16T15:59:43.492Z,72.48
2023-02-16T16:02:13.519Z,72.38
2023-02-16T16:04:42.491Z,72.37
2023-02-16T16:07:14.341Z,72.23
2023-02-16T16:09:42.645Z,72.15
2023-02-16T16:12:13.654Z,72.11
2023-02-16T16:14:49.065Z,72.15
2023-02-16T16:17:21.117Z,72.34
2023-02-16T16:19:48.909Z,72.26
2023-02-16T16:22:36.662Z,72.24
2023-02-16T16:25:35.657Z,72.25
2023-02-16T16:28:05.656Z,72.28
2023-02-16T16:30:36.806Z,72.40
2023-02-16T16:33:09.276Z,72.31
2023-02-16T16:35:40.149Z,72.21
2023-02-16T16:38:33.433Z,72.33
2023-02-16T16:41:04.265Z,72.13
2023-02-16T16:43:33.912Z,72.09
2023-02-16T16:46:23.531Z,72.20
2023-02-16T16:48:53.909Z,72.19
2023-02-16T16:51:41.028Z,72.15
2023-02-16T16:54:30.061Z,72.23
2023-02-16T16:56:57.543Z,72.25
2023-02-16T16:59:24.618Z,72.16
2023-02-16T17:01:53.017Z,72.02
2023-02-16T17:04:22.154Z,72.18
2023-02-16T17:06:49.397Z,72.12
2023-02-16T17:09:16.960Z,72.20
2023-02-16T17:11:44.244Z,72.12
2023-02-16T17:14:17.482Z,72.00
2023-02-16T17:16:47.023Z,71.98
2023-02-16T17:19:16.209Z,72.17
2023-02-16T17:21:43.741Z,72.23
2023-02-16T17:24:10.997Z,72.26
2023-02-16T17:26:38.221Z,72.38
2023-02-16T17:29:06.499Z,72.28
2023-02-16T17:31:34.187Z,72.20
2023-02-16T17:34:01.670Z,72.29
2023-02-16T17:36:29.105Z,72.19
2023-02-16T17:38:56.329Z,72.20
2023-02-16T17:41:24.533Z,72.09
2023-02-16T17:43:52.318Z,72.14
2023-02-16T17:46:21.676Z,71.96
2023-02-16T17:48:55.206Z,72.02
2023-02-16T17:51:24.817Z,72.07
2023-02-16T17:53:52.058Z,72.09
2023-02-16T17:56:22.754Z,72.30
2023-02-16T17:58:50.820Z,72.08
2023-02-16T18:01:19.515Z,72.21
2023-02-16T18:03:46.861Z,71.99
2023-02-16T18:06:16.055Z,72.05
2023-02-16T18:08:44.361Z,72.09
2023-02-16T18:11:12.409Z,72.12
2023-02-16T18:13:39.597Z,72.11
2023-02-16T18:16:08.050Z,72.06
2023-02-16T18:18:39.616Z,72.08
2023-02-16T18:21:07.334Z,72.17
2023-02-16T18:23:34.540Z,72.27
2023-02-16T18:26:01.613Z,72.09
2023-02-16T18:28:30.933Z,72.09
2023-02-16T18:30:58.586Z,72.19
2023-02-16T18:33:26.756Z,72.17
2023-02-16T18:35:57.492Z,72.13
2023-02-16T18:38:24.833Z,72.12
2023-02-16T18:40:54.091Z,71.97
2023-02-16T18:43:21.988Z,71.92
2023-02-16T18:45:49.829Z,72.04
2023-02-16T18:48:17.255Z,71.97
2023-02-16T18:50:44.869Z,71.98
2023-02-16T18:53:12.098Z,72.06
2023-02-16T18:55:39.322Z,72.14
2023-02-16T18:58:08.252Z,72.09
2023-02-16T19:00:36.421Z,72.10
2023-02-16T19:03:04.402Z,72.06
2023-02-16T19:05:32.382Z,72.12
2023-02-16T19:07:59.760Z,72.13
2023-02-16T19:10:27.144Z,72.20
2023-02-16T19:12:54.376Z,72.23
2023-02-16T19:15:21.674Z,72.23
2023-02-16T19:17:48.865Z,72.27
2023-02-16T19:20:18.666Z,72.20
2023-02-16T19:22:47.096Z,72.10
2023-02-16T19:25:14.843Z,72.13
2023-02-16T19:27:42.725Z,72.09
2023-02-16T19:30:10.801Z,72.16
2023-02-16T19:32:41.050Z,72.00
2023-02-16T19:35:09.961Z,71.95
2023-02-16T19:37:37.517Z,72.15
2023-02-16T19:40:06.853Z,72.15
2023-02-16T19:42:33.895Z,72.08
2023-02-16T19:45:01.093Z,72.03
2023-02-16T19:47:28.270Z,72.20
2023-02-16T19:49:55.344Z,72.12
2023-02-16T19:52:22.675Z,72.09
2023-02-16T19:54:49.950Z,72.08
2023-02-16T19:57:17.029Z,72.03
2023-02-16T19:59:44.024Z,72.00
2023-02-16T20:02:15.636Z,72.12
2023-02-16T20:04:44.731Z,72.09
2023-02-16T20:07:11.874Z,72.03
2023-02-16T20:09:39.255Z,72.16
2023-02-16T20:12:06.655Z,72.20
2023-02-16T20:14:33.952Z,72.12
2023-02-16T20:17:01.067Z,72.21
2023-02-16T20:19:28.087Z,72.20
2023-02-16T20:21:55.274Z,72.21
2023-02-16T20:24:22.445Z,72.13
2023-02-16T20:26:52.068Z,72.16
2023-02-16T20:29:21.000Z,72.26
2023-02-16T20:31:52.814Z,72.19
2023-02-16T20:34:20.569Z,72.21
2023-02-16T20:36:47.915Z,72.13
2023-02-16T20:39:15.669Z,72.04
2023-02-16T20:41:43.608Z,72.10
2023-02-16T20:44:11.711Z,72.25
2023-02-16T20:46:40.049Z,72.17
2023-02-16T20:49:08.308Z,72.16
2023-02-16T20:51:36.232Z,72.12
2023-02-16T20:54:03.867Z,72.18
2023-02-16T20:56:31.037Z,72.09
2023-02-16T20:58:58.172Z,72.03
2023-02-16T21:01:32.573Z,72.13
2023-02-16T21:04:00.536Z,72.18
2023-02-16T21:06:28.502Z,72.22
2023-02-16T21:08:56.137Z,72.25
2023-02-16T21:11:24.127Z,72.10
2023-02-16T21:13:51.899Z,72.34
2023-02-16T21:16:19.181Z,72.15
2023-02-16T21:18:46.459Z,72.25
2023-02-16T21:21:15.931Z,72.22
2023-02-16T21:23:49.213Z,72.21
2023-02-16T21:26:17.642Z,72.29
2023-02-16T21:28:44.733Z,72.28
2023-02-16T21:31:15.014Z,72.37
2023-02-16T21:33:42.592Z,72.40
2023-02-16T21:36:12.175Z,72.34
2023-02-16T21:38:40.525Z,72.24
2023-02-16T21:41:24.728Z,72.22
2023-02-16T21:44:03.062Z,72.24
2023-02-16T21:46:33.420Z,72.27
2023-02-16T21:49:00.977Z,72.44
2023-02-16T21:51:34.450Z,72.21
2023-02-16T21:54:02.242Z,72.35
2023-02-16T21:56:29.520Z,72.29
2023-02-16T21:58:57.386Z,72.47
2023-02-16T22:01:28.504Z,72.48
2023-02-16T22:03:58.762Z,72.42
2023-02-16T22:06:28.618Z,72.49
2023-02-16T22:08:55.923Z,72.37
2023-02-16T22:11:23.075Z,72.50
2023-02-16T22:13:55.139Z,72.42
2023-02-16T22:16:23.107Z,72.38
2023-02-16T22:18:50.343Z,72.36
2023-02-16T22:21:17.468Z,72.55
2023-02-16T22:23:44.585Z,72.34
2023-02-16T22:26:20.671Z,72.48
2023-02-16T22:28:47.747Z,72.47
2023-02-16T22:31:15.190Z,72.38
2023-02-16T22:33:42.384Z,72.47
2023-02-16T22:36:13.961Z,72.39
2023-02-16T22:38:42.044Z,72.45
2023-02-16T22:41:11.093Z,72.62
2023-02-16T22:43:39.191Z,72.58
2023-02-16T22:46:08.768Z,72.42
2023-02-16T22:48:36.510Z,72.44
2023-02-16T22:51:08.796Z,72.50
2023-02-16T22:53:35.953Z,72.49
2023-02-16T22:56:06.512Z,72.36
2023-02-16T22:58:34.039Z,72.48
2023-02-16T23:01:01.149Z,72.55
2023-02-16T23:03:28.993Z,72.48
2023-02-16T23:05:56.127Z,72.64
2023-02-16T23:08:23.350Z,72.50
2023-02-16T23:11:00.166Z,72.62
2023-02-16T23:13:29.150Z,72.57
2023-02-16T23:15:57.275Z,72.57
2023-02-16T23:18:25.173Z,72.65
2023-02-16T23:20:52.225Z,72.46
2023-02-16T23:23:19.290Z,72.63
2023-02-16T23:25:49.667Z,72.57
2023-02-16T23:28:16.867Z,72.65
2023-02-16T23:30:46.646Z,72.61
2023-02-16T23:33:14.424Z,72.67
2023-02-16T23:35:42.006Z,72.69
2023-02-16T23:38:14.502Z,72.77
2023-02-16T23:40:42.732Z,72.87
2023-02-16T23:43:10.765Z,72.80
2023-02-16T23:45:38.777Z,72.76
2023-02-16T23:48:06.180Z,72.72
2023-02-16T23:50:33.379Z,72.69
2023-02-16T23:53:00.589Z,72.72
2023-02-16T23:55:27.734Z,72.70
2023-02-16T23:57:54.832Z,72.83
